createdAt,value
2022-12-25T00:01:20.465Z,2.45
2022-12-25T00:03:47.638Z,3.57
2022-12-25T00:06:14.834Z,3.40
2022-12-25T00:08:42.476Z,3.40
2022-12-25T00:11:13.613Z,3.28
2022-12-25T00:13:41.903Z,2.90
2022-12-25T00:16:12.617Z,3.53
2022-12-25T00:18:39.633Z,4.20
2022-12-25T00:21:07.489Z,4.30
2022-12-25T00:23:35.627Z,3.58
2022-12-25T00:26:08.068Z,3.65
2022-12-25T00:28:36.171Z,3.50
2022-12-25T00:31:08.117Z,3.80
2022-12-25T00:33:40.368Z,4.20
2022-12-25T00:36:08.579Z,4.20
2022-12-25T00:38:37.771Z,4.57
2022-12-25T00:41:11.593Z,4.90
2022-12-25T00:43:38.855Z,4.30
2022-12-25T00:46:06.800Z,4.50
2022-12-25T00:48:35.176Z,4.30
2022-12-25T00:51:08.157Z,4.72
2022-12-25T00:53:36.690Z,4.40
2022-12-25T00:56:06.243Z,4.28
2022-12-25T00:58:34.676Z,4.30
2022-12-25T01:01:02.976Z,4.40
2022-12-25T01:03:30.197Z,4.43
2022-12-25T01:06:03.334Z,4.40
2022-12-25T01:08:36.888Z,4.20
2022-12-25T01:11:06.607Z,6.40
2022-12-25T01:13:35.487Z,7.47
2022-12-25T01:16:10.961Z,4.60
2022-12-25T01:18:38.795Z,4.93
2022-12-25T01:21:07.628Z,4.72
2022-12-25T01:23:34.900Z,5.28
2022-12-25T01:26:09.576Z,5.22
2022-12-25T01:28:37.590Z,5.03
2022-12-25T01:31:05.659Z,5.30
2022-12-25T01:33:32.611Z,5.05
2022-12-25T01:35:59.521Z,4.57
2022-12-25T01:38:26.442Z,5.07
2022-12-25T01:40:53.635Z,4.00
2022-12-25T01:43:30.619Z,4.13
2022-12-25T01:45:57.981Z,4.20
2022-12-25T01:48:29.971Z,4.03
2022-12-25T01:51:01.588Z,4.07
2022-12-25T01:53:28.991Z,4.50
2022-12-25T01:56:01.521Z,3.90
2022-12-25T01:58:29.219Z,3.90
2022-12-25T02:00:56.269Z,4.10
2022-12-25T02:03:23.860Z,3.97
2022-12-25T02:05:51.054Z,3.90
2022-12-25T02:08:19.672Z,3.07
2022-12-25T02:10:46.845Z,3.30
2022-12-25T02:13:15.959Z,3.30
2022-12-25T02:15:45.933Z,3.20
2022-12-25T02:18:42.201Z,2.90
2022-12-25T02:21:16.504Z,2.85
2022-12-25T02:23:49.171Z,2.67
2022-12-25T02:26:34.791Z,2.60
2022-12-25T02:29:17.796Z,2.80
2022-12-25T02:32:20.507Z,2.70
2022-12-25T02:34:51.379Z,2.70
2022-12-25T02:37:33.405Z,3.05
2022-12-25T02:40:13.297Z,2.55
2022-12-25T02:43:14.834Z,2.80
2022-12-25T02:46:04.280Z,2.90
2022-12-25T02:48:53.709Z,3.00
2022-12-25T02:51:43.740Z,2.93
2022-12-25T02:54:32.822Z,3.28
2022-12-25T02:57:20.294Z,3.20
2022-12-25T03:00:07.773Z,2.72
2022-12-25T03:02:53.399Z,3.00
2022-12-25T03:05:47.895Z,3.10
2022-12-25T03:08:20.334Z,2.30
2022-12-25T03:11:25.095Z,2.65
2022-12-25T03:13:55.930Z,3.10
2022-12-25T03:16:41.601Z,3.10
2022-12-25T03:19:27.171Z,2.40
2022-12-25T03:22:14.383Z,2.25
2022-12-25T03:25:00.171Z,4.50
2022-12-25T03:27:29.526Z,3.00
2022-12-25T03:30:31.932Z,3.10
2022-12-25T03:33:44.706Z,3.70
2022-12-25T03:36:27.910Z,3.50
2022-12-25T03:39:39.319Z,3.47
2022-12-25T03:42:25.951Z,3.90
2022-12-25T03:45:32.816Z,3.50
2022-12-25T03:48:18.822Z,4.00
2022-12-25T03:51:10.068Z,3.75
2022-12-25T03:54:00.610Z,4.00
2022-12-25T03:56:48.240Z,4.03
2022-12-25T03:59:38.603Z,4.20
2022-12-25T04:02:24.176Z,4.22
2022-12-25T04:05:10.177Z,3.90
2022-12-25T04:07:55.658Z,4.45
2022-12-25T04:10:41.307Z,4.10
2022-12-25T04:13:27.019Z,5.90
2022-12-25T04:16:13.229Z,4.20
2022-12-25T04:18:58.824Z,4.13
2022-12-25T04:21:44.502Z,4.22
2022-12-25T04:24:29.821Z,4.57
2022-12-25T04:27:15.365Z,4.32
2022-12-25T04:30:00.730Z,4.22
2022-12-25T04:32:46.166Z,4.22
2022-12-25T04:35:31.582Z,3.95
2022-12-25T04:37:58.382Z,3.60
2022-12-25T04:40:25.346Z,3.63
2022-12-25T04:42:52.457Z,3.80
2022-12-25T04:45:19.460Z,3.53
2022-12-25T04:47:46.324Z,3.53
2022-12-25T04:50:13.146Z,3.40
2022-12-25T04:52:40.924Z,3.60
2022-12-25T04:55:09.106Z,3.00
2022-12-25T04:57:36.352Z,3.20
2022-12-25T05:00:05.008Z,3.40
2022-12-25T05:02:32.091Z,3.30
2022-12-25T05:04:59.061Z,3.50
2022-12-25T05:07:25.760Z,3.67
2022-12-25T05:09:52.535Z,3.30
2022-12-25T05:12:19.509Z,3.65
2022-12-25T05:14:46.657Z,3.70
2022-12-25T05:17:13.484Z,3.78
2022-12-25T05:19:40.243Z,3.40
2022-12-25T05:22:07.031Z,4.22
2022-12-25T05:24:33.900Z,3.83
2022-12-25T05:27:00.754Z,3.70
2022-12-25T05:29:27.547Z,3.55
2022-12-25T05:31:54.374Z,3.00
2022-12-25T05:34:21.188Z,3.00
2022-12-25T05:36:50.577Z,3.03
2022-12-25T05:39:17.348Z,3.22
2022-12-25T05:41:44.140Z,2.90
2022-12-25T05:44:11.092Z,3.50
2022-12-25T05:46:37.856Z,3.90
2022-12-25T05:49:05.754Z,4.00
2022-12-25T05:51:33.124Z,3.90
2022-12-25T05:54:00.095Z,4.00
2022-12-25T05:56:27.347Z,3.72
2022-12-25T05:58:54.181Z,3.50
2022-12-25T06:01:23.998Z,3.50
2022-12-25T06:03:51.719Z,3.10
2022-12-25T06:06:21.153Z,3.50
2022-12-25T06:08:48.184Z,3.47
2022-12-25T06:11:15.404Z,3.10
2022-12-25T06:13:42.268Z,3.20
2022-12-25T06:16:10.948Z,3.22
2022-12-25T06:18:40.274Z,3.27
2022-12-25T06:21:11.823Z,3.60
2022-12-25T06:23:39.510Z,3.67
2022-12-25T06:26:12.566Z,3.33
2022-12-25T06:28:40.494Z,3.10
2022-12-25T06:31:12.459Z,3.50
2022-12-25T06:33:39.422Z,3.43
2022-12-25T06:36:17.796Z,2.97
2022-12-25T06:38:45.086Z,2.83
2022-12-25T06:41:14.370Z,3.00
2022-12-25T06:43:41.182Z,2.70
2022-12-25T06:46:12.462Z,3.00
2022-12-25T06:48:41.123Z,3.13
2022-12-25T06:51:07.992Z,2.70
2022-12-25T06:53:40.587Z,3.17
2022-12-25T06:56:15.174Z,2.88
2022-12-25T06:58:47.902Z,2.80
2022-12-25T07:01:25.589Z,2.80
2022-12-25T07:03:56.405Z,2.78
2022-12-25T07:06:23.648Z,2.42
2022-12-25T07:08:50.529Z,2.55
2022-12-25T07:11:17.729Z,2.20
2022-12-25T07:13:44.509Z,2.40
2022-12-25T07:16:12.783Z,2.50
2022-12-25T07:18:40.652Z,2.30
2022-12-25T07:21:13.538Z,2.60
2022-12-25T07:23:41.141Z,2.10
2022-12-25T07:26:09.974Z,2.50
2022-12-25T07:28:36.925Z,2.25
2022-12-25T07:31:05.991Z,2.50
2022-12-25T07:33:33.847Z,2.63
2022-12-25T07:36:01.158Z,2.70
2022-12-25T07:38:28.151Z,2.50
2022-12-25T07:40:54.977Z,2.40
2022-12-25T07:43:21.889Z,2.70
2022-12-25T07:45:48.944Z,2.60
2022-12-25T07:48:17.036Z,2.20
2022-12-25T07:50:43.957Z,2.47
2022-12-25T07:53:10.758Z,2.30
2022-12-25T07:55:37.499Z,2.30
2022-12-25T07:58:04.356Z,2.30
2022-12-25T08:00:34.199Z,2.40
2022-12-25T08:03:01.301Z,2.70
2022-12-25T08:05:28.158Z,2.60
2022-12-25T08:07:58.019Z,2.47
2022-12-25T08:10:25.389Z,2.20
2022-12-25T08:12:55.333Z,2.60
2022-12-25T08:15:22.059Z,2.60
2022-12-25T08:17:48.938Z,2.20
2022-12-25T08:20:15.748Z,2.20
2022-12-25T08:22:42.618Z,2.40
2022-12-25T08:25:09.724Z,3.00
2022-12-25T08:27:36.555Z,2.80
2022-12-25T08:30:04.211Z,2.35
2022-12-25T08:32:33.582Z,2.50
2022-12-25T08:35:00.395Z,2.55
2022-12-25T08:37:30.176Z,2.13
2022-12-25T08:39:56.999Z,2.40
2022-12-25T08:42:23.905Z,2.40
2022-12-25T08:44:50.779Z,2.20
2022-12-25T08:47:17.581Z,2.00
2022-12-25T08:49:44.405Z,2.00
2022-12-25T08:52:11.307Z,2.10
2022-12-25T08:54:38.198Z,2.20
2022-12-25T08:57:05.097Z,2.90
2022-12-25T08:59:32.035Z,4.13
2022-12-25T09:01:58.986Z,3.50
2022-12-25T09:04:26.038Z,4.05
2022-12-25T09:06:52.901Z,3.77
2022-12-25T09:09:19.686Z,3.30
2022-12-25T09:11:46.509Z,3.80
2022-12-25T09:14:14.195Z,3.72
2022-12-25T09:16:41.040Z,3.40
2022-12-25T09:19:07.883Z,4.10
2022-12-25T09:21:36.618Z,3.30
2022-12-25T09:24:04.888Z,3.80
2022-12-25T09:26:31.665Z,3.97
2022-12-25T09:28:58.558Z,4.73
2022-12-25T09:31:25.488Z,4.25
2022-12-25T09:33:56.853Z,5.00
2022-12-25T09:36:24.724Z,4.80
2022-12-25T09:38:52.638Z,4.45
2022-12-25T09:41:37.715Z,4.60
2022-12-25T09:44:11.577Z,5.13
2022-12-25T09:46:49.670Z,5.03
2022-12-25T09:49:22.450Z,4.90
2022-12-25T09:51:54.875Z,4.55
2022-12-25T09:54:32.570Z,4.93
2022-12-25T09:56:59.572Z,4.65
2022-12-25T09:59:27.345Z,4.90
2022-12-25T10:02:24.858Z,4.70
2022-12-25T10:05:25.559Z,4.60
2022-12-25T10:08:08.011Z,4.68
2022-12-25T10:11:12.475Z,4.50
2022-12-25T10:13:57.279Z,4.45
2022-12-25T10:16:42.327Z,4.73
2022-12-25T10:19:35.257Z,4.70
2022-12-25T10:22:09.234Z,4.80
2022-12-25T10:24:38.137Z,4.50
2022-12-25T10:27:30.820Z,5.00
2022-12-25T10:29:58.965Z,4.80
2022-12-25T10:32:25.819Z,5.00
2022-12-25T10:34:52.684Z,4.70
2022-12-25T10:37:19.585Z,4.30
2022-12-25T10:39:47.257Z,4.78
2022-12-25T10:42:40.821Z,4.55
2022-12-25T10:45:09.442Z,5.00
2022-12-25T10:47:39.097Z,5.00
2022-12-25T10:50:25.877Z,5.07
2022-12-25T10:53:05.132Z,5.20
2022-12-25T10:55:33.195Z,4.65
2022-12-25T10:58:01.871Z,5.30
2022-12-25T11:00:32.245Z,5.10
2022-12-25T11:02:59.921Z,5.40
2022-12-25T11:05:30.614Z,5.20
2022-12-25T11:08:00.171Z,5.60
2022-12-25T11:10:37.225Z,5.47
2022-12-25T11:13:07.708Z,5.20
2022-12-25T11:15:42.053Z,5.28
2022-12-25T11:18:19.760Z,6.40
2022-12-25T11:20:58.595Z,5.88
2022-12-25T11:23:27.848Z,5.65
2022-12-25T11:26:15.937Z,5.97
2022-12-25T11:28:45.735Z,5.55
2022-12-25T11:31:16.690Z,5.80
2022-12-25T11:33:57.251Z,5.40
2022-12-25T11:36:46.897Z,5.37
2022-12-25T11:39:27.477Z,5.60
2022-12-25T11:42:02.343Z,5.50
2022-12-25T11:44:45.269Z,5.10
2022-12-25T11:47:40.975Z,5.43
2022-12-25T11:50:20.361Z,5.20
2022-12-25T11:52:48.204Z,5.40
2022-12-25T11:55:36.622Z,5.50
2022-12-25T11:58:18.405Z,5.80
2022-12-25T12:00:47.798Z,5.43
2022-12-25T12:03:40.725Z,5.53
2022-12-25T12:06:17.212Z,5.50
2022-12-25T12:08:46.010Z,5.60
2022-12-25T12:11:21.471Z,5.50
2022-12-25T12:14:43.038Z,5.20
2022-12-25T12:17:13.195Z,5.60
2022-12-25T12:19:42.025Z,5.20
2022-12-25T12:22:21.398Z,5.70
2022-12-25T12:25:01.436Z,5.70
2022-12-25T12:27:40.283Z,5.40
2022-12-25T12:30:23.237Z,5.67
2022-12-25T12:32:59.181Z,5.80
2022-12-25T12:35:29.265Z,6.00
2022-12-25T12:38:03.451Z,6.07
2022-12-25T12:40:41.902Z,6.40
2022-12-25T12:43:40.181Z,6.18
2022-12-25T12:46:30.545Z,6.10
2022-12-25T12:49:23.699Z,5.50
2022-12-25T12:52:02.028Z,5.65
2022-12-25T12:54:28.778Z,5.90
2022-12-25T12:57:04.012Z,5.40
2022-12-25T12:59:40.103Z,5.18
2022-12-25T13:02:18.688Z,5.30
2022-12-25T13:05:13.457Z,5.00
2022-12-25T13:08:21.006Z,5.00
2022-12-25T13:10:52.783Z,4.90
2022-12-25T13:13:28.198Z,4.75
2022-12-25T13:15:57.498Z,4.80
2022-12-25T13:18:24.526Z,5.10
2022-12-25T13:20:59.629Z,4.95
2022-12-25T13:23:32.642Z,5.18
2022-12-25T13:26:01.201Z,4.60
2022-12-25T13:28:30.163Z,4.20
2022-12-25T13:31:13.992Z,4.00
2022-12-25T13:33:46.143Z,3.63
2022-12-25T13:36:14.129Z,3.90
2022-12-25T13:38:49.445Z,3.90
2022-12-25T13:41:38.214Z,3.47
2022-12-25T13:44:24.843Z,3.58
2022-12-25T13:46:51.930Z,3.28
2022-12-25T13:49:22.409Z,2.80
2022-12-25T13:51:50.933Z,2.80
2022-12-25T13:54:18.769Z,2.60
2022-12-25T13:56:51.852Z,2.97
2022-12-25T13:59:21.541Z,3.20
2022-12-25T14:01:50.512Z,2.88
2022-12-25T14:04:23.739Z,2.60
2022-12-25T14:06:52.233Z,2.28
2022-12-25T14:09:20.043Z,2.30
2022-12-25T14:11:51.287Z,3.22
2022-12-25T14:14:25.908Z,2.30
2022-12-25T14:16:57.072Z,2.03
2022-12-25T14:19:29.600Z,2.10
2022-12-25T14:22:22.555Z,2.30
2022-12-25T14:24:49.649Z,2.00
2022-12-25T14:27:30.248Z,2.10
2022-12-25T14:29:59.189Z,3.00
2022-12-25T14:32:28.627Z,3.60
2022-12-25T14:35:03.427Z,3.30
2022-12-25T14:37:32.543Z,3.80
2022-12-25T14:40:21.696Z,2.70
2022-12-25T14:43:03.303Z,2.10
2022-12-25T14:45:34.830Z,1.70
2022-12-25T14:48:18.531Z,2.10
2022-12-25T14:51:15.907Z,2.00
2022-12-25T14:54:17.180Z,2.05
2022-12-25T14:56:48.452Z,1.90
2022-12-25T14:59:21.594Z,2.00
2022-12-25T15:01:55.747Z,2.20
2022-12-25T15:04:23.846Z,3.00
2022-12-25T15:07:08.321Z,2.53
2022-12-25T15:09:36.229Z,2.35
2022-12-25T15:12:03.653Z,1.90
2022-12-25T15:14:31.477Z,2.00
2022-12-25T15:17:00.937Z,2.28
2022-12-25T15:19:37.675Z,2.50
2022-12-25T15:22:05.795Z,3.25
2022-12-25T15:24:32.666Z,3.80
2022-12-25T15:27:00.598Z,3.70
2022-12-25T15:30:00.268Z,2.88
2022-12-25T15:32:21.041Z,4.15
2022-12-25T15:34:49.783Z,9.95
2022-12-25T15:37:18.392Z,7.53
2022-12-25T15:39:45.420Z,5.30
2022-12-25T15:42:18.437Z,5.15
2022-12-25T15:44:45.862Z,4.93
2022-12-25T15:47:14.385Z,2.90
2022-12-25T15:49:41.609Z,4.25
2022-12-25T15:52:12.543Z,2.00
2022-12-25T15:54:39.524Z,1.80
2022-12-25T15:57:13.644Z,1.80
2022-12-25T15:59:40.576Z,1.38
2022-12-25T16:02:15.637Z,1.70
2022-12-25T16:04:43.057Z,1.70
2022-12-25T16:07:19.449Z,1.70
2022-12-25T16:09:46.398Z,1.60
2022-12-25T16:12:13.474Z,1.70
2022-12-25T16:14:40.219Z,1.60
2022-12-25T16:17:07.658Z,1.33
2022-12-25T16:19:34.436Z,2.38
2022-12-25T16:22:01.241Z,2.70
2022-12-25T16:24:28.179Z,1.70
2022-12-25T16:26:54.921Z,2.20
2022-12-25T16:29:21.681Z,2.30
2022-12-25T16:31:48.602Z,3.42
2022-12-25T16:34:15.446Z,2.40
2022-12-25T16:36:42.399Z,3.20
2022-12-25T16:39:09.124Z,2.95
2022-12-25T16:41:35.998Z,2.80
2022-12-25T16:44:09.607Z,3.05
2022-12-25T16:46:37.409Z,2.37
2022-12-25T16:49:04.462Z,2.90
2022-12-25T16:51:31.493Z,2.42
2022-12-25T16:53:58.376Z,2.10
2022-12-25T16:56:28.204Z,3.10
2022-12-25T16:58:56.637Z,3.70
2022-12-25T17:01:24.513Z,3.10
2022-12-25T17:03:51.911Z,3.10
2022-12-25T17:06:24.768Z,2.10
2022-12-25T17:08:53.111Z,2.60
2022-12-25T17:11:24.234Z,2.38
2022-12-25T17:13:51.076Z,3.55
2022-12-25T17:16:21.020Z,3.47
2022-12-25T17:18:48.334Z,2.25
2022-12-25T17:21:15.075Z,2.83
2022-12-25T17:23:42.997Z,2.90
2022-12-25T17:26:09.868Z,3.28
2022-12-25T17:28:37.298Z,9.27
2022-12-25T17:31:10.374Z,4.30
2022-12-25T17:33:39.149Z,4.07
2022-12-25T17:36:12.083Z,3.30
2022-12-25T17:38:39.578Z,3.63
2022-12-25T17:41:08.579Z,5.18
2022-12-25T17:43:37.472Z,4.72
2022-12-25T17:46:08.882Z,4.10
2022-12-25T17:48:36.295Z,3.00
2022-12-25T17:51:05.030Z,3.55
2022-12-25T17:53:33.920Z,2.63
2022-12-25T17:56:00.668Z,2.50
2022-12-25T17:58:27.830Z,3.10
2022-12-25T18:00:54.900Z,3.80
2022-12-25T18:03:22.322Z,2.92
2022-12-25T18:05:49.335Z,2.80
2022-12-25T18:08:16.194Z,3.00
2022-12-25T18:10:44.032Z,2.97
2022-12-25T18:13:12.265Z,4.20
2022-12-25T18:15:40.274Z,2.40
2022-12-25T18:18:08.288Z,4.10
2022-12-25T18:20:39.841Z,2.60
2022-12-25T18:23:08.210Z,2.10
2022-12-25T18:25:39.539Z,2.30
2022-12-25T18:28:06.257Z,2.30
2022-12-25T18:30:33.209Z,2.50
2022-12-25T18:33:00.093Z,2.30
2022-12-25T18:35:30.118Z,3.80
2022-12-25T18:37:56.951Z,2.95
2022-12-25T18:40:23.959Z,2.35
2022-12-25T18:42:52.311Z,3.50
2022-12-25T18:45:21.788Z,2.30
2022-12-25T18:47:48.848Z,2.40
2022-12-25T18:50:16.107Z,3.88
2022-12-25T18:52:49.266Z,2.90
2022-12-25T18:55:18.167Z,2.90
2022-12-25T18:57:45.049Z,4.57
2022-12-25T19:00:12.362Z,3.00
2022-12-25T19:02:39.543Z,2.40
2022-12-25T19:05:06.940Z,9.23
2022-12-25T19:07:33.889Z,3.70
2022-12-25T19:10:00.708Z,3.07
2022-12-25T19:12:27.698Z,3.50
2022-12-25T19:14:54.572Z,3.80
2022-12-25T19:17:23.428Z,3.08
2022-12-25T19:19:53.537Z,3.80
2022-12-25T19:22:20.326Z,3.50
2022-12-25T19:24:47.259Z,3.05
2022-12-25T19:27:14.221Z,3.00
2022-12-25T19:29:41.013Z,4.43
2022-12-25T19:32:08.151Z,3.60
2022-12-25T19:34:35.061Z,3.70
2022-12-25T19:37:02.503Z,3.07
2022-12-25T19:39:29.283Z,3.00
2022-12-25T19:41:56.071Z,2.80
2022-12-25T19:44:23.194Z,3.15
2022-12-25T19:46:50.013Z,4.00
2022-12-25T19:49:17.063Z,3.78
2022-12-25T19:51:46.130Z,2.83
2022-12-25T19:54:15.438Z,2.43
2022-12-25T19:56:42.677Z,2.30
2022-12-25T19:59:11.665Z,2.40
2022-12-25T20:01:39.032Z,2.30
2022-12-25T20:04:08.672Z,2.40
2022-12-25T20:06:38.226Z,2.50
2022-12-25T20:09:21.022Z,2.50
2022-12-25T20:11:48.455Z,2.58
2022-12-25T20:14:16.427Z,3.22
2022-12-25T20:16:44.113Z,7.25
2022-12-25T20:19:14.844Z,3.80
2022-12-25T20:21:41.918Z,4.32
2022-12-25T20:24:11.031Z,2.90
2022-12-25T20:26:39.139Z,2.38
2022-12-25T20:29:06.731Z,2.80
2022-12-25T20:31:34.989Z,3.20
2022-12-25T20:34:08.018Z,2.92
2022-12-25T20:36:37.708Z,3.08
2022-12-25T20:39:08.650Z,2.50
2022-12-25T20:41:36.006Z,2.50
2022-12-25T20:44:04.132Z,2.55
2022-12-25T20:46:31.076Z,3.13
2022-12-25T20:48:58.081Z,3.50
2022-12-25T20:51:26.031Z,8.05
2022-12-25T20:53:53.710Z,3.38
2022-12-25T20:56:23.961Z,3.88
2022-12-25T20:58:55.400Z,3.40
2022-12-25T21:01:22.507Z,4.55
2022-12-25T21:03:49.997Z,3.70
2022-12-25T21:06:17.038Z,4.30
2022-12-25T21:08:43.771Z,3.90
2022-12-25T21:11:11.516Z,5.10
2022-12-25T21:13:40.880Z,6.20
2022-12-25T21:16:13.538Z,4.95
2022-12-25T21:18:40.612Z,5.10
2022-12-25T21:21:08.195Z,6.00
2022-12-25T21:23:37.352Z,3.30
2022-12-25T21:26:15.582Z,3.60
2022-12-25T21:28:42.675Z,2.70
2022-12-25T21:31:10.134Z,3.00
2022-12-25T21:33:52.107Z,3.30
2022-12-25T21:36:31.712Z,3.55
2022-12-25T21:38:58.585Z,2.38
2022-12-25T21:41:26.881Z,2.33
2022-12-25T21:43:54.082Z,2.90
2022-12-25T21:46:20.986Z,3.80
2022-12-25T21:48:48.748Z,2.47
2022-12-25T21:51:39.334Z,2.50
2022-12-25T21:54:07.188Z,2.72
2022-12-25T21:56:43.123Z,2.90
2022-12-25T21:59:14.819Z,3.20
2022-12-25T22:01:42.157Z,2.58
2022-12-25T22:04:09.544Z,2.60
2022-12-25T22:06:55.187Z,2.30
2022-12-25T22:09:22.625Z,2.72
2022-12-25T22:12:07.910Z,2.40
2022-12-25T22:14:55.498Z,2.30
2022-12-25T22:17:54.094Z,2.00
2022-12-25T22:20:28.330Z,1.95
2022-12-25T22:22:55.671Z,2.17
2022-12-25T22:25:23.165Z,2.00
2022-12-25T22:27:50.783Z,1.90
2022-12-25T22:30:23.877Z,2.42
2022-12-25T22:32:51.886Z,2.53
2022-12-25T22:35:19.527Z,2.00
2022-12-25T22:37:46.676Z,2.03
2022-12-25T22:40:16.276Z,1.97
2022-12-25T22:42:43.066Z,2.10
2022-12-25T22:45:10.437Z,2.00
2022-12-25T22:47:37.179Z,1.73
2022-12-25T22:50:05.224Z,2.10
2022-12-25T22:52:32.130Z,2.05
2022-12-25T22:54:59.073Z,2.00
2022-12-25T22:57:25.850Z,2.10
2022-12-25T22:59:53.184Z,2.30
2022-12-25T23:02:20.933Z,2.00
2022-12-25T23:04:48.011Z,2.10
2022-12-25T23:07:15.603Z,1.90
2022-12-25T23:09:43.820Z,2.20
2022-12-25T23:12:29.985Z,2.00
2022-12-25T23:14:57.211Z,2.40
2022-12-25T23:17:42.782Z,1.90
2022-12-25T23:20:31.264Z,2.10
2022-12-25T23:23:16.873Z,2.20
2022-12-25T23:26:02.577Z,2.10
2022-12-25T23:28:47.892Z,2.10
2022-12-25T23:31:14.772Z,2.10
2022-12-25T23:33:41.591Z,2.20
2022-12-25T23:36:08.417Z,2.20
2022-12-25T23:38:35.191Z,2.20
2022-12-25T23:41:01.969Z,2.05
2022-12-25T23:43:28.762Z,2.00
2022-12-25T23:45:55.478Z,2.10
2022-12-25T23:48:22.225Z,2.10
2022-12-25T23:50:48.925Z,1.85
2022-12-25T23:53:15.718Z,2.00
2022-12-25T23:55:42.749Z,2.20
2022-12-25T23:58:10.235Z,2.13
